sensor_id;sensor_type;location;lat;lon;timestamp;P1;durP1;ratioP1;P2;durP2;ratioP2
72354;SDS011;60314;55.040;73.076;2022-12-26T00:01:20;6.72;;;2.40;;
72354;SDS011;60314;55.040;73.076;2022-12-26T00:03:49;11.07;;;3.80;;
72354;SDS011;60314;55.040;73.076;2022-12-26T00:06:26;14.48;;;4.13;;
72354;SDS011;60314;55.040;73.076;2022-12-26T00:08:54;14.18;;;4.60;;
72354;SDS011;60314;55.040;73.076;2022-12-26T00:11:27;12.88;;;4.72;;
72354;SDS011;60314;55.040;73.076;2022-12-26T00:14:12;13.02;;;5.18;;
72354;SDS011;60314;55.040;73.076;2022-12-26T00:16:41;10.63;;;4.47;;
72354;SDS011;60314;55.040;73.076;2022-12-26T00:19:09;10.90;;;4.57;;
72354;SDS011;60314;55.040;73.076;2022-12-26T00:21:35;11.77;;;4.38;;
72354;SDS011;60314;55.040;73.076;2022-12-26T00:24:04;9.75;;;4.07;;
72354;SDS011;60314;55.040;73.076;2022-12-26T00:26:32;13.93;;;4.10;;
72354;SDS011;60314;55.040;73.076;2022-12-26T00:29:10;13.95;;;4.90;;
72354;SDS011;60314;55.040;73.076;2022-12-26T00:31:47;12.68;;;4.50;;
72354;SDS011;60314;55.040;73.076;2022-12-26T00:34:14;14.73;;;4.22;;
72354;SDS011;60314;55.040;73.076;2022-12-26T00:36:41;14.43;;;4.38;;
72354;SDS011;60314;55.040;73.076;2022-12-26T00:39:12;12.90;;;4.43;;
72354;SDS011;60314;55.040;73.076;2022-12-26T00:41:39;13.18;;;4.35;;
72354;SDS011;60314;55.040;73.076;2022-12-26T00:44:05;15.52;;;4.75;;
72354;SDS011;60314;55.040;73.076;2022-12-26T00:46:32;15.13;;;5.25;;
72354;SDS011;60314;55.040;73.076;2022-12-26T00:48:58;10.00;;;3.92;;
72354;SDS011;60314;55.040;73.076;2022-12-26T00:51:25;10.60;;;4.05;;
72354;SDS011;60314;55.040;73.076;2022-12-26T00:53:52;9.10;;;2.70;;
72354;SDS011;60314;55.040;73.076;2022-12-26T00:56:18;7.57;;;2.22;;
72354;SDS011;60314;55.040;73.076;2022-12-26T00:58:46;5.57;;;2.17;;
72354;SDS011;60314;55.040;73.076;2022-12-26T01:01:13;9.95;;;3.65;;
72354;SDS011;60314;55.040;73.076;2022-12-26T01:03:48;6.38;;;2.28;;
72354;SDS011;60314;55.040;73.076;2022-12-26T01:06:15;6.80;;;2.70;;
72354;SDS011;60314;55.040;73.076;2022-12-26T01:08:42;12.05;;;2.63;;
72354;SDS011;60314;55.040;73.076;2022-12-26T01:11:11;8.70;;;1.60;;
72354;SDS011;60314;55.040;73.076;2022-12-26T01:13:43;5.65;;;1.73;;
72354;SDS011;60314;55.040;73.076;2022-12-26T01:16:11;5.70;;;1.75;;
72354;SDS011;60314;55.040;73.076;2022-12-26T01:18:47;6.78;;;1.90;;
72354;SDS011;60314;55.040;73.076;2022-12-26T01:21:16;10.18;;;1.83;;
72354;SDS011;60314;55.040;73.076;2022-12-26T01:23:42;8.77;;;1.85;;
72354;SDS011;60314;55.040;73.076;2022-12-26T01:26:09;4.70;;;1.50;;
72354;SDS011;60314;55.040;73.076;2022-12-26T01:28:35;5.10;;;1.52;;
72354;SDS011;60314;55.040;73.076;2022-12-26T01:31:03;3.03;;;1.05;;
72354;SDS011;60314;55.040;73.076;2022-12-26T01:33:31;6.85;;;1.52;;
72354;SDS011;60314;55.040;73.076;2022-12-26T01:36:08;7.38;;;1.23;;
72354;SDS011;60314;55.040;73.076;2022-12-26T01:38:40;7.22;;;1.10;;
72354;SDS011;60314;55.040;73.076;2022-12-26T01:41:06;6.30;;;1.25;;
72354;SDS011;60314;55.040;73.076;2022-12-26T01:46:14;3.25;;;1.05;;
72354;SDS011;60314;55.040;73.076;2022-12-26T01:48:52;5.32;;;1.27;;
72354;SDS011;60314;55.040;73.076;2022-12-26T01:51:22;4.90;;;1.10;;
72354;SDS011;60314;55.040;73.076;2022-12-26T01:53:51;4.35;;;1.30;;
72354;SDS011;60314;55.040;73.076;2022-12-26T01:59:17;3.45;;;1.20;;
72354;SDS011;60314;55.040;73.076;2022-12-26T02:01:49;5.18;;;1.10;;
72354;SDS011;60314;55.040;73.076;2022-12-26T02:04:24;5.75;;;1.42;;
72354;SDS011;60314;55.040;73.076;2022-12-26T02:07:12;3.88;;;1.10;;
72354;SDS011;60314;55.040;73.076;2022-12-26T02:09:39;4.25;;;1.20;;
72354;SDS011;60314;55.040;73.076;2022-12-26T02:14:41;5.25;;;1.17;;
72354;SDS011;60314;55.040;73.076;2022-12-26T02:17:08;12.63;;;2.22;;
72354;SDS011;60314;55.040;73.076;2022-12-26T02:19:46;16.33;;;4.85;;
72354;SDS011;60314;55.040;73.076;2022-12-26T02:22:58;13.77;;;6.60;;
72354;SDS011;60314;55.040;73.076;2022-12-26T02:35:30;5.47;;;2.42;;
72354;SDS011;60314;55.040;73.076;2022-12-26T02:41:18;4.38;;;1.30;;
72354;SDS011;60314;55.040;73.076;2022-12-26T02:44:11;7.13;;;1.73;;
72354;SDS011;60314;55.040;73.076;2022-12-26T02:47:21;5.35;;;1.58;;
72354;SDS011;60314;55.040;73.076;2022-12-26T02:50:11;5.68;;;1.80;;
72354;SDS011;60314;55.040;73.076;2022-12-26T02:55:58;5.45;;;1.80;;
72354;SDS011;60314;55.040;73.076;2022-12-26T03:01:36;4.30;;;1.58;;
72354;SDS011;60314;55.040;73.076;2022-12-26T03:04:25;4.97;;;1.60;;
72354;SDS011;60314;55.040;73.076;2022-12-26T03:07:14;5.90;;;1.40;;
72354;SDS011;60314;55.040;73.076;2022-12-26T03:10:20;5.50;;;1.42;;
72354;SDS011;60314;55.040;73.076;2022-12-26T03:13:18;5.65;;;1.65;;
72354;SDS011;60314;55.040;73.076;2022-12-26T03:16:02;4.72;;;1.10;;
72354;SDS011;60314;55.040;73.076;2022-12-26T03:18:57;3.38;;;1.40;;
72354;SDS011;60314;55.040;73.076;2022-12-26T03:21:30;4.00;;;1.40;;
72354;SDS011;60314;55.040;73.076;2022-12-26T03:24:02;3.45;;;1.25;;
72354;SDS011;60314;55.040;73.076;2022-12-26T03:26:32;3.55;;;1.05;;
72354;SDS011;60314;55.040;73.076;2022-12-26T03:29:09;3.53;;;1.42;;
72354;SDS011;60314;55.040;73.076;2022-12-26T03:32:06;4.13;;;1.40;;
72354;SDS011;60314;55.040;73.076;2022-12-26T03:34:36;5.15;;;1.60;;
72354;SDS011;60314;55.040;73.076;2022-12-26T03:43:17;7.53;;;2.22;;
72354;SDS011;60314;55.040;73.076;2022-12-26T03:49:21;9.55;;;3.80;;
72354;SDS011;60314;55.040;73.076;2022-12-26T03:52:22;8.55;;;3.30;;
72354;SDS011;60314;55.040;73.076;2022-12-26T03:55:25;10.13;;;3.50;;
72354;SDS011;60314;55.040;73.076;2022-12-26T03:59:20;19.33;;;6.15;;
72354;SDS011;60314;55.040;73.076;2022-12-26T04:01:49;12.15;;;5.28;;
72354;SDS011;60314;55.040;73.076;2022-12-26T04:04:35;13.48;;;4.80;;
72354;SDS011;60314;55.040;73.076;2022-12-26T04:07:26;11.15;;;4.28;;
72354;SDS011;60314;55.040;73.076;2022-12-26T04:10:20;11.02;;;3.78;;
72354;SDS011;60314;55.040;73.076;2022-12-26T04:16:37;10.38;;;3.00;;
72354;SDS011;60314;55.040;73.076;2022-12-26T04:27:56;4.22;;;1.50;;
72354;SDS011;60314;55.040;73.076;2022-12-26T04:30:42;5.60;;;1.23;;
72354;SDS011;60314;55.040;73.076;2022-12-26T04:33:34;3.85;;;1.08;;
72354;SDS011;60314;55.040;73.076;2022-12-26T04:36:33;4.60;;;1.58;;
72354;SDS011;60314;55.040;73.076;2022-12-26T04:39:34;2.78;;;0.70;;
72354;SDS011;60314;55.040;73.076;2022-12-26T04:42:21;3.83;;;1.33;;
72354;SDS011;60314;55.040;73.076;2022-12-26T04:45:09;2.78;;;0.80;;
72354;SDS011;60314;55.040;73.076;2022-12-26T04:47:38;4.50;;;1.30;;
72354;SDS011;60314;55.040;73.076;2022-12-26T04:50:25;3.50;;;1.77;;
72354;SDS011;60314;55.040;73.076;2022-12-26T04:52:56;5.20;;;1.15;;
72354;SDS011;60314;55.040;73.076;2022-12-26T04:55:34;5.82;;;0.80;;
72354;SDS011;60314;55.040;73.076;2022-12-26T04:58:02;3.88;;;1.00;;
72354;SDS011;60314;55.040;73.076;2022-12-26T05:00:29;3.45;;;0.90;;
72354;SDS011;60314;55.040;73.076;2022-12-26T05:02:55;2.50;;;0.68;;
72354;SDS011;60314;55.040;73.076;2022-12-26T05:05:42;3.40;;;0.90;;
72354;SDS011;60314;55.040;73.076;2022-12-26T05:08:32;2.50;;;0.73;;
72354;SDS011;60314;55.040;73.076;2022-12-26T05:11:31;6.57;;;1.20;;
72354;SDS011;60314;55.040;73.076;2022-12-26T05:14:00;4.15;;;1.52;;
72354;SDS011;60314;55.040;73.076;2022-12-26T05:16:27;2.92;;;0.93;;
72354;SDS011;60314;55.040;73.076;2022-12-26T05:19:13;3.85;;;0.90;;
72354;SDS011;60314;55.040;73.076;2022-12-26T05:21:59;3.90;;;1.20;;
72354;SDS011;60314;55.040;73.076;2022-12-26T05:24:46;2.85;;;1.10;;
72354;SDS011;60314;55.040;73.076;2022-12-26T05:27:33;4.72;;;1.20;;
72354;SDS011;60314;55.040;73.076;2022-12-26T05:30:20;1.95;;;0.90;;
72354;SDS011;60314;55.040;73.076;2022-12-26T05:32:47;6.03;;;1.00;;
72354;SDS011;60314;55.040;73.076;2022-12-26T05:35:32;3.28;;;1.08;;
72354;SDS011;60314;55.040;73.076;2022-12-26T05:38:00;4.18;;;0.98;;
72354;SDS011;60314;55.040;73.076;2022-12-26T05:40:27;3.92;;;1.08;;
72354;SDS011;60314;55.040;73.076;2022-12-26T05:43:03;5.60;;;1.30;;
72354;SDS011;60314;55.040;73.076;2022-12-26T05:45:41;4.18;;;1.27;;
72354;SDS011;60314;55.040;73.076;2022-12-26T05:48:07;5.00;;;1.45;;
72354;SDS011;60314;55.040;73.076;2022-12-26T05:50:34;5.03;;;1.52;;
72354;SDS011;60314;55.040;73.076;2022-12-26T05:53:01;3.78;;;0.90;;
72354;SDS011;60314;55.040;73.076;2022-12-26T05:55:29;3.47;;;1.15;;
72354;SDS011;60314;55.040;73.076;2022-12-26T05:58:00;3.17;;;1.23;;
72354;SDS011;60314;55.040;73.076;2022-12-26T06:00:27;3.25;;;0.93;;
72354;SDS011;60314;55.040;73.076;2022-12-26T06:02:55;4.15;;;0.82;;
72354;SDS011;60314;55.040;73.076;2022-12-26T06:05:21;2.05;;;0.75;;
72354;SDS011;60314;55.040;73.076;2022-12-26T06:07:48;3.83;;;0.95;;
72354;SDS011;60314;55.040;73.076;2022-12-26T06:10:15;2.22;;;0.60;;
72354;SDS011;60314;55.040;73.076;2022-12-26T06:12:41;2.60;;;0.85;;
72354;SDS011;60314;55.040;73.076;2022-12-26T06:15:08;3.47;;;1.25;;
72354;SDS011;60314;55.040;73.076;2022-12-26T06:17:35;2.80;;;0.93;;
72354;SDS011;60314;55.040;73.076;2022-12-26T06:20:13;4.82;;;1.10;;
72354;SDS011;60314;55.040;73.076;2022-12-26T06:22:42;4.30;;;1.52;;
72354;SDS011;60314;55.040;73.076;2022-12-26T06:25:08;3.75;;;1.00;;
72354;SDS011;60314;55.040;73.076;2022-12-26T06:27:45;3.00;;;0.80;;
72354;SDS011;60314;55.040;73.076;2022-12-26T06:30:22;3.00;;;0.95;;
72354;SDS011;60314;55.040;73.076;2022-12-26T06:32:48;2.38;;;0.93;;
72354;SDS011;60314;55.040;73.076;2022-12-26T06:35:15;3.42;;;1.02;;
72354;SDS011;60314;55.040;73.076;2022-12-26T06:37:41;3.13;;;0.93;;
72354;SDS011;60314;55.040;73.076;2022-12-26T06:40:08;5.10;;;1.20;;
72354;SDS011;60314;55.040;73.076;2022-12-26T06:42:40;3.47;;;0.80;;
72354;SDS011;60314;55.040;73.076;2022-12-26T06:45:07;3.38;;;0.95;;
72354;SDS011;60314;55.040;73.076;2022-12-26T06:47:34;3.72;;;1.10;;
72354;SDS011;60314;55.040;73.076;2022-12-26T06:50:00;3.30;;;1.00;;
72354;SDS011;60314;55.040;73.076;2022-12-26T06:52:27;5.05;;;1.13;;
72354;SDS011;60314;55.040;73.076;2022-12-26T06:54:54;4.53;;;0.85;;
72354;SDS011;60314;55.040;73.076;2022-12-26T06:57:20;2.67;;;0.95;;
72354;SDS011;60314;55.040;73.076;2022-12-26T06:59:47;2.45;;;0.82;;
72354;SDS011;60314;55.040;73.076;2022-12-26T07:02:13;2.20;;;0.80;;
72354;SDS011;60314;55.040;73.076;2022-12-26T07:04:40;2.42;;;0.93;;
72354;SDS011;60314;55.040;73.076;2022-12-26T07:07:07;3.63;;;0.95;;
72354;SDS011;60314;55.040;73.076;2022-12-26T07:09:33;2.50;;;0.70;;
72354;SDS011;60314;55.040;73.076;2022-12-26T07:12:00;4.32;;;1.23;;
72354;SDS011;60314;55.040;73.076;2022-12-26T07:14:26;5.15;;;1.73;;
72354;SDS011;60314;55.040;73.076;2022-12-26T07:16:53;4.55;;;1.58;;
72354;SDS011;60314;55.040;73.076;2022-12-26T07:19:19;4.65;;;1.20;;
72354;SDS011;60314;55.040;73.076;2022-12-26T07:21:46;3.72;;;1.55;;
72354;SDS011;60314;55.040;73.076;2022-12-26T07:24:23;4.32;;;1.55;;
72354;SDS011;60314;55.040;73.076;2022-12-26T07:26:49;9.73;;;3.50;;
72354;SDS011;60314;55.040;73.076;2022-12-26T07:29:17;8.27;;;1.50;;
72354;SDS011;60314;55.040;73.076;2022-12-26T07:31:44;4.95;;;1.58;;
72354;SDS011;60314;55.040;73.076;2022-12-26T07:34:11;3.35;;;1.10;;
72354;SDS011;60314;55.040;73.076;2022-12-26T07:36:38;2.65;;;0.90;;
72354;SDS011;60314;55.040;73.076;2022-12-26T07:39:05;3.67;;;1.02;;
72354;SDS011;60314;55.040;73.076;2022-12-26T07:41:32;2.75;;;0.80;;
72354;SDS011;60314;55.040;73.076;2022-12-26T07:44:17;6.80;;;1.65;;
72354;SDS011;60314;55.040;73.076;2022-12-26T07:46:43;14.77;;;2.50;;
72354;SDS011;60314;55.040;73.076;2022-12-26T07:49:11;6.35;;;1.20;;
72354;SDS011;60314;55.040;73.076;2022-12-26T07:51:38;4.90;;;1.00;;
72354;SDS011;60314;55.040;73.076;2022-12-26T07:54:04;3.33;;;0.82;;
72354;SDS011;60314;55.040;73.076;2022-12-26T07:56:31;4.80;;;0.85;;
72354;SDS011;60314;55.040;73.076;2022-12-26T07:58:58;4.78;;;1.15;;
72354;SDS011;60314;55.040;73.076;2022-12-26T08:01:25;5.38;;;1.23;;
72354;SDS011;60314;55.040;73.076;2022-12-26T08:03:53;1.90;;;0.60;;
72354;SDS011;60314;55.040;73.076;2022-12-26T08:06:19;4.68;;;0.90;;
72354;SDS011;60314;55.040;73.076;2022-12-26T08:08:46;2.33;;;0.70;;
72354;SDS011;60314;55.040;73.076;2022-12-26T08:11:14;2.47;;;0.70;;
72354;SDS011;60314;55.040;73.076;2022-12-26T08:13:50;3.00;;;0.80;;
72354;SDS011;60314;55.040;73.076;2022-12-26T08:16:26;1.67;;;0.52;;
72354;SDS011;60314;55.040;73.076;2022-12-26T08:18:57;2.85;;;0.98;;
72354;SDS011;60314;55.040;73.076;2022-12-26T08:21:24;2.35;;;0.82;;
72354;SDS011;60314;55.040;73.076;2022-12-26T08:23:50;4.45;;;1.00;;
72354;SDS011;60314;55.040;73.076;2022-12-26T08:26:17;6.82;;;0.80;;
72354;SDS011;60314;55.040;73.076;2022-12-26T08:28:48;2.80;;;0.75;;
72354;SDS011;60314;55.040;73.076;2022-12-26T08:31:17;2.05;;;0.77;;
72354;SDS011;60314;55.040;73.076;2022-12-26T08:33:45;6.22;;;0.65;;
72354;SDS011;60314;55.040;73.076;2022-12-26T08:36:12;2.30;;;0.60;;
72354;SDS011;60314;55.040;73.076;2022-12-26T08:38:41;9.25;;;0.93;;
72354;SDS011;60314;55.040;73.076;2022-12-26T08:41:08;3.75;;;1.02;;
72354;SDS011;60314;55.040;73.076;2022-12-26T08:43:39;2.17;;;0.70;;
72354;SDS011;60314;55.040;73.076;2022-12-26T08:46:06;2.95;;;0.98;;
72354;SDS011;60314;55.040;73.076;2022-12-26T08:48:35;1.83;;;0.60;;
72354;SDS011;60314;55.040;73.076;2022-12-26T08:51:04;5.75;;;1.02;;
72354;SDS011;60314;55.040;73.076;2022-12-26T08:53:43;4.40;;;1.73;;
72354;SDS011;60314;55.040;73.076;2022-12-26T08:56:12;3.38;;;1.00;;
72354;SDS011;60314;55.040;73.076;2022-12-26T08:58:40;4.90;;;1.17;;
72354;SDS011;60314;55.040;73.076;2022-12-26T09:01:08;2.70;;;0.90;;
72354;SDS011;60314;55.040;73.076;2022-12-26T09:03:37;2.63;;;0.70;;
72354;SDS011;60314;55.040;73.076;2022-12-26T09:06:04;2.58;;;0.80;;
72354;SDS011;60314;55.040;73.076;2022-12-26T09:08:34;5.07;;;1.40;;
72354;SDS011;60314;55.040;73.076;2022-12-26T09:11:06;3.42;;;1.00;;
72354;SDS011;60314;55.040;73.076;2022-12-26T09:13:43;2.60;;;0.70;;
72354;SDS011;60314;55.040;73.076;2022-12-26T09:16:27;3.15;;;0.98;;
72354;SDS011;60314;55.040;73.076;2022-12-26T09:18:57;2.10;;;0.80;;
72354;SDS011;60314;55.040;73.076;2022-12-26T09:21:26;3.13;;;0.90;;
72354;SDS011;60314;55.040;73.076;2022-12-26T09:23:57;3.53;;;1.02;;
72354;SDS011;60314;55.040;73.076;2022-12-26T09:26:24;2.43;;;0.80;;
72354;SDS011;60314;55.040;73.076;2022-12-26T09:28:57;2.22;;;0.82;;
72354;SDS011;60314;55.040;73.076;2022-12-26T09:31:25;2.85;;;0.90;;
72354;SDS011;60314;55.040;73.076;2022-12-26T09:33:54;2.45;;;0.80;;
72354;SDS011;60314;55.040;73.076;2022-12-26T09:36:27;2.40;;;0.88;;
72354;SDS011;60314;55.040;73.076;2022-12-26T09:38:56;2.65;;;0.80;;
72354;SDS011;60314;55.040;73.076;2022-12-26T09:47:18;3.42;;;0.70;;
72354;SDS011;60314;55.040;73.076;2022-12-26T09:50:12;2.85;;;0.70;;
72354;SDS011;60314;55.040;73.076;2022-12-26T09:53:16;3.30;;;1.05;;
72354;SDS011;60314;55.040;73.076;2022-12-26T09:56:08;0.80;;;0.38;;
72354;SDS011;60314;55.040;73.076;2022-12-26T09:58:46;2.75;;;0.60;;
72354;SDS011;60314;55.040;73.076;2022-12-26T10:03:47;1.83;;;0.60;;
72354;SDS011;60314;55.040;73.076;2022-12-26T10:06:16;2.40;;;0.50;;
72354;SDS011;60314;55.040;73.076;2022-12-26T10:17:19;3.83;;;0.60;;
72354;SDS011;60314;55.040;73.076;2022-12-26T10:23:03;1.90;;;0.70;;
72354;SDS011;60314;55.040;73.076;2022-12-26T10:31:28;2.83;;;0.65;;
72354;SDS011;60314;55.040;73.076;2022-12-26T10:34:09;1.73;;;0.68;;
72354;SDS011;60314;55.040;73.076;2022-12-26T10:36:58;4.38;;;0.88;;
72354;SDS011;60314;55.040;73.076;2022-12-26T10:42:20;3.53;;;1.45;;
72354;SDS011;60314;55.040;73.076;2022-12-26T10:44:53;6.00;;;1.52;;
72354;SDS011;60314;55.040;73.076;2022-12-26T10:49:46;4.68;;;1.73;;
72354;SDS011;60314;55.040;73.076;2022-12-26T10:52:15;7.75;;;2.22;;
72354;SDS011;60314;55.040;73.076;2022-12-26T10:54:48;6.80;;;2.42;;
72354;SDS011;60314;55.040;73.076;2022-12-26T10:57:30;7.75;;;2.38;;
72354;SDS011;60314;55.040;73.076;2022-12-26T11:00:02;13.45;;;3.15;;
72354;SDS011;60314;55.040;73.076;2022-12-26T11:02:39;9.70;;;2.63;;
72354;SDS011;60314;55.040;73.076;2022-12-26T11:05:09;12.98;;;3.88;;
72354;SDS011;60314;55.040;73.076;2022-12-26T11:07:46;18.52;;;5.75;;
72354;SDS011;60314;55.040;73.076;2022-12-26T11:10:23;11.18;;;3.15;;
72354;SDS011;60314;55.040;73.076;2022-12-26T11:12:59;8.15;;;2.47;;
72354;SDS011;60314;55.040;73.076;2022-12-26T11:15:30;5.55;;;2.00;;
72354;SDS011;60314;55.040;73.076;2022-12-26T11:20:50;7.10;;;2.20;;
72354;SDS011;60314;55.040;73.076;2022-12-26T11:23:19;11.07;;;3.70;;
72354;SDS011;60314;55.040;73.076;2022-12-26T11:25:57;8.45;;;2.72;;
72354;SDS011;60314;55.040;73.076;2022-12-26T11:28:34;6.47;;;2.03;;
72354;SDS011;60314;55.040;73.076;2022-12-26T11:31:03;9.43;;;3.10;;
72354;SDS011;60314;55.040;73.076;2022-12-26T11:33:32;11.32;;;2.30;;
72354;SDS011;60314;55.040;73.076;2022-12-26T11:36:27;10.60;;;3.63;;
72354;SDS011;60314;55.040;73.076;2022-12-26T11:38:56;16.05;;;3.75;;
72354;SDS011;60314;55.040;73.076;2022-12-26T11:41:34;10.77;;;3.38;;
72354;SDS011;60314;55.040;73.076;2022-12-26T11:49:52;10.18;;;3.20;;
72354;SDS011;60314;55.040;73.076;2022-12-26T11:52:34;5.25;;;1.85;;
72354;SDS011;60314;55.040;73.076;2022-12-26T12:00:42;7.47;;;2.88;;
72354;SDS011;60314;55.040;73.076;2022-12-26T12:03:38;8.82;;;3.08;;
72354;SDS011;60314;55.040;73.076;2022-12-26T12:09:27;6.43;;;2.05;;
72354;SDS011;60314;55.040;73.076;2022-12-26T12:17:32;3.33;;;1.10;;
72354;SDS011;60314;55.040;73.076;2022-12-26T12:32:13;3.25;;;1.00;;
72354;SDS011;60314;55.040;73.076;2022-12-26T12:37:31;6.10;;;1.23;;
72354;SDS011;60314;55.040;73.076;2022-12-26T12:51:02;8.60;;;2.85;;
72354;SDS011;60314;55.040;73.076;2022-12-26T13:01:49;7.55;;;2.25;;
72354;SDS011;60314;55.040;73.076;2022-12-26T13:04:36;10.57;;;3.92;;
72354;SDS011;60314;55.040;73.076;2022-12-26T13:07:17;19.77;;;5.85;;
72354;SDS011;60314;55.040;73.076;2022-12-26T13:09:49;22.05;;;7.57;;
72354;SDS011;60314;55.040;73.076;2022-12-26T13:12:30;24.48;;;8.15;;
72354;SDS011;60314;55.040;73.076;2022-12-26T13:15:13;24.65;;;7.38;;
72354;SDS011;60314;55.040;73.076;2022-12-26T13:18:01;23.20;;;7.15;;
72354;SDS011;60314;55.040;73.076;2022-12-26T13:23:30;4.75;;;1.85;;
72354;SDS011;60314;55.040;73.076;2022-12-26T13:26:20;9.02;;;2.70;;
72354;SDS011;60314;55.040;73.076;2022-12-26T13:29:02;10.35;;;3.33;;
72354;SDS011;60314;55.040;73.076;2022-12-26T13:31:33;15.32;;;4.70;;
72354;SDS011;60314;55.040;73.076;2022-12-26T13:34:01;16.83;;;4.43;;
72354;SDS011;60314;55.040;73.076;2022-12-26T13:36:33;12.10;;;3.78;;
72354;SDS011;60314;55.040;73.076;2022-12-26T13:39:20;16.50;;;4.50;;
72354;SDS011;60314;55.040;73.076;2022-12-26T13:45:17;11.23;;;3.58;;
72354;SDS011;60314;55.040;73.076;2022-12-26T13:50:53;18.58;;;6.30;;
72354;SDS011;60314;55.040;73.076;2022-12-26T13:53:39;17.00;;;6.53;;
72354;SDS011;60314;55.040;73.076;2022-12-26T13:56:33;16.35;;;4.90;;
72354;SDS011;60314;55.040;73.076;2022-12-26T14:01:54;8.45;;;2.67;;
72354;SDS011;60314;55.040;73.076;2022-12-26T14:10:27;33.08;;;9.25;;
72354;SDS011;60314;55.040;73.076;2022-12-26T14:29:27;5.57;;;2.00;;
72354;SDS011;60314;55.040;73.076;2022-12-26T14:37:26;5.05;;;1.65;;
72354;SDS011;60314;55.040;73.076;2022-12-26T14:45:44;7.22;;;2.03;;
72354;SDS011;60314;55.040;73.076;2022-12-26T14:58:46;9.73;;;3.30;;
72354;SDS011;60314;55.040;73.076;2022-12-26T15:15:27;3.85;;;1.23;;
72354;SDS011;60314;55.040;73.076;2022-12-26T15:24:34;3.70;;;1.17;;
72354;SDS011;60314;55.040;73.076;2022-12-26T15:27:00;3.03;;;0.90;;
72354;SDS011;60314;55.040;73.076;2022-12-26T15:37:48;4.00;;;1.10;;
72354;SDS011;60314;55.040;73.076;2022-12-26T15:40:27;2.72;;;1.00;;
72354;SDS011;60314;55.040;73.076;2022-12-26T15:45:52;4.50;;;1.13;;
72354;SDS011;60314;55.040;73.076;2022-12-26T15:51:39;3.10;;;1.05;;
72354;SDS011;60314;55.040;73.076;2022-12-26T16:02:31;5.95;;;1.63;;
72354;SDS011;60314;55.040;73.076;2022-12-26T16:10:27;28.48;;;8.68;;
72354;SDS011;60314;55.040;73.076;2022-12-26T16:15:54;46.30;;;12.70;;
72354;SDS011;60314;55.040;73.076;2022-12-26T16:18:26;85.53;;;19.25;;
72354;SDS011;60314;55.040;73.076;2022-12-26T16:21:03;15.25;;;3.30;;
72354;SDS011;60314;55.040;73.076;2022-12-26T16:23:50;6.03;;;1.90;;
72354;SDS011;60314;55.040;73.076;2022-12-26T16:26:23;13.38;;;2.22;;
72354;SDS011;60314;55.040;73.076;2022-12-26T16:28:57;5.32;;;1.70;;
72354;SDS011;60314;55.040;73.076;2022-12-26T16:31:30;12.15;;;2.28;;
72354;SDS011;60314;55.040;73.076;2022-12-26T16:33:57;11.80;;;3.95;;
72354;SDS011;60314;55.040;73.076;2022-12-26T16:36:26;7.65;;;2.00;;
72354;SDS011;60314;55.040;73.076;2022-12-26T16:38:55;9.95;;;2.75;;
72354;SDS011;60314;55.040;73.076;2022-12-26T16:41:23;4.78;;;1.30;;
72354;SDS011;60314;55.040;73.076;2022-12-26T16:43:52;5.75;;;1.48;;
72354;SDS011;60314;55.040;73.076;2022-12-26T16:46:30;8.32;;;2.08;;
72354;SDS011;60314;55.040;73.076;2022-12-26T16:49:02;5.07;;;1.58;;
72354;SDS011;60314;55.040;73.076;2022-12-26T16:51:39;8.32;;;2.05;;
72354;SDS011;60314;55.040;73.076;2022-12-26T16:54:42;19.55;;;5.68;;
72354;SDS011;60314;55.040;73.076;2022-12-26T16:57:18;25.58;;;9.73;;
72354;SDS011;60314;55.040;73.076;2022-12-26T17:02:37;4.55;;;1.65;;
72354;SDS011;60314;55.040;73.076;2022-12-26T17:05:22;5.47;;;1.70;;
72354;SDS011;60314;55.040;73.076;2022-12-26T17:08:40;6.22;;;1.70;;
72354;SDS011;60314;55.040;73.076;2022-12-26T17:11:12;6.57;;;1.38;;
72354;SDS011;60314;55.040;73.076;2022-12-26T17:13:39;5.90;;;1.60;;
72354;SDS011;60314;55.040;73.076;2022-12-26T17:16:20;5.47;;;1.65;;
72354;SDS011;60314;55.040;73.076;2022-12-26T17:24:41;4.28;;;1.40;;
72354;SDS011;60314;55.040;73.076;2022-12-26T17:27:19;6.68;;;1.70;;
72354;SDS011;60314;55.040;73.076;2022-12-26T17:30:00;4.22;;;1.45;;
72354;SDS011;60314;55.040;73.076;2022-12-26T17:32:51;6.22;;;1.58;;
72354;SDS011;60314;55.040;73.076;2022-12-26T17:35:24;5.10;;;1.67;;
72354;SDS011;60314;55.040;73.076;2022-12-26T17:38:02;4.78;;;1.75;;
72354;SDS011;60314;55.040;73.076;2022-12-26T17:40:33;4.82;;;1.50;;
72354;SDS011;60314;55.040;73.076;2022-12-26T17:45:38;6.00;;;1.60;;
72354;SDS011;60314;55.040;73.076;2022-12-26T17:48:16;6.32;;;1.70;;
72354;SDS011;60314;55.040;73.076;2022-12-26T17:50:44;4.80;;;1.60;;
72354;SDS011;60314;55.040;73.076;2022-12-26T17:56:04;6.40;;;2.00;;
72354;SDS011;60314;55.040;73.076;2022-12-26T17:58:36;4.78;;;1.65;;
72354;SDS011;60314;55.040;73.076;2022-12-26T18:01:13;6.60;;;1.95;;
72354;SDS011;60314;55.040;73.076;2022-12-26T18:03:40;5.53;;;1.70;;
72354;SDS011;60314;55.040;73.076;2022-12-26T18:06:09;9.73;;;1.75;;
72354;SDS011;60314;55.040;73.076;2022-12-26T18:08:48;7.60;;;2.15;;
72354;SDS011;60314;55.040;73.076;2022-12-26T18:11:15;4.97;;;1.75;;
72354;SDS011;60314;55.040;73.076;2022-12-26T18:13:52;7.22;;;2.30;;
72354;SDS011;60314;55.040;73.076;2022-12-26T18:16:24;4.35;;;1.60;;
72354;SDS011;60314;55.040;73.076;2022-12-26T18:18:53;8.88;;;1.95;;
72354;SDS011;60314;55.040;73.076;2022-12-26T18:21:19;8.07;;;1.90;;
72354;SDS011;60314;55.040;73.076;2022-12-26T18:23:46;4.95;;;1.75;;
72354;SDS011;60314;55.040;73.076;2022-12-26T18:26:20;7.35;;;2.10;;
72354;SDS011;60314;55.040;73.076;2022-12-26T18:28:55;7.47;;;1.67;;
72354;SDS011;60314;55.040;73.076;2022-12-26T18:31:22;6.57;;;2.10;;
72354;SDS011;60314;55.040;73.076;2022-12-26T18:34:01;7.75;;;1.77;;
72354;SDS011;60314;55.040;73.076;2022-12-26T18:36:32;6.68;;;1.77;;
72354;SDS011;60314;55.040;73.076;2022-12-26T18:39:05;3.85;;;1.52;;
72354;SDS011;60314;55.040;73.076;2022-12-26T18:41:42;5.63;;;1.85;;
72354;SDS011;60314;55.040;73.076;2022-12-26T18:44:08;8.65;;;2.00;;
72354;SDS011;60314;55.040;73.076;2022-12-26T18:46:35;8.57;;;1.80;;
72354;SDS011;60314;55.040;73.076;2022-12-26T18:49:01;6.18;;;2.17;;
72354;SDS011;60314;55.040;73.076;2022-12-26T18:51:28;8.20;;;2.42;;
72354;SDS011;60314;55.040;73.076;2022-12-26T18:53:55;7.55;;;2.53;;
72354;SDS011;60314;55.040;73.076;2022-12-26T18:56:22;12.23;;;2.78;;
72354;SDS011;60314;55.040;73.076;2022-12-26T18:58:49;6.53;;;2.22;;
72354;SDS011;60314;55.040;73.076;2022-12-26T19:01:16;7.30;;;2.22;;
72354;SDS011;60314;55.040;73.076;2022-12-26T19:03:44;6.13;;;1.77;;
72354;SDS011;60314;55.040;73.076;2022-12-26T19:06:22;6.75;;;2.05;;
72354;SDS011;60314;55.040;73.076;2022-12-26T19:09:00;5.38;;;1.95;;
72354;SDS011;60314;55.040;73.076;2022-12-26T19:11:27;5.93;;;1.80;;
72354;SDS011;60314;55.040;73.076;2022-12-26T19:13:53;6.25;;;2.30;;
72354;SDS011;60314;55.040;73.076;2022-12-26T19:16:20;8.23;;;2.13;;
72354;SDS011;60314;55.040;73.076;2022-12-26T19:18:52;7.53;;;1.88;;
72354;SDS011;60314;55.040;73.076;2022-12-26T19:21:28;6.78;;;2.03;;
72354;SDS011;60314;55.040;73.076;2022-12-26T19:23:55;4.22;;;1.58;;
72354;SDS011;60314;55.040;73.076;2022-12-26T19:26:26;6.75;;;2.03;;
72354;SDS011;60314;55.040;73.076;2022-12-26T19:28:55;8.00;;;2.13;;
72354;SDS011;60314;55.040;73.076;2022-12-26T19:31:27;7.40;;;2.13;;